Time;durP1;ratioP1;P1;durP2;ratioP2;P2;SDS_P1;SDS_P2;PMS_P1;PMS_P2;Temp;Humidity;BMP_temperature;BMP_pressure;BME280_temperature;BME280_humidity;BME280_pressure;Samples;Min_cycle;Max_cycle;Signal;HPM_P1;HPM_P2
2022/03/05 00:02:14;;;;;;;2.20;2.00;;;;;;;11.51;47.93;99537.04;1814616;79;21001;-69
2022/03/05 00:04:40;;;;;;;2.55;2.27;;;;;;;11.51;47.92;99533.90;1837827;77;21193;-69
2022/03/05 00:07:08;;;;;;;2.42;2.17;;;;;;;11.51;47.89;99539.22;1847681;77;21045;-68
2022/03/05 00:09:34;;;;;;;2.45;2.25;;;;;;;11.49;47.91;99534.58;1845401;77;20997;-69
2022/03/05 00:12:01;;;;;;;2.77;2.37;;;;;;;11.49;47.90;99525.75;1814516;79;21029;-67
2022/03/05 00:14:27;;;;;;;2.40;2.20;;;;;;;11.49;47.90;99532.41;1814517;79;21013;-67
2022/03/05 00:16:54;;;;;;;2.50;2.30;;;;;;;11.49;47.89;99537.24;1814465;79;21193;-68
2022/03/05 00:19:21;;;;;;;2.70;2.22;;;;;;;11.48;47.90;99532.09;1814418;79;21002;-68
2022/03/05 00:21:47;;;;;;;3.00;2.60;;;;;;;11.47;47.89;99532.57;1814646;79;21053;-68
2022/03/05 00:24:14;;;;;;;2.42;2.22;;;;;;;11.47;47.89;99527.25;1814899;78;20978;-68
2022/03/05 00:26:40;;;;;;;2.50;2.30;;;;;;;11.47;47.90;99529.91;1818027;77;21042;-68
2022/03/05 00:29:07;;;;;;;2.60;2.40;;;;;;;11.47;47.90;99533.08;1797098;79;21279;-68
2022/03/05 00:31:34;;;;;;;2.35;2.15;;;;;;;11.45;47.88;99533.26;1759495;81;21079;-68
2022/03/05 00:34:01;;;;;;;2.50;2.30;;;;;;;11.45;47.88;99528.45;1759649;81;21101;-68
2022/03/05 00:36:27;;;;;;;2.37;2.17;;;;;;;11.45;47.88;99531.92;1820533;78;20995;-68
2022/03/05 00:38:54;;;;;;;2.83;2.35;;;;;;;11.44;47.87;99531.62;1820483;78;21040;-68
2022/03/05 00:41:20;;;;;;;2.42;2.22;;;;;;;11.44;47.88;99529.47;1820687;78;21213;-69
2022/03/05 00:43:47;;;;;;;2.15;1.95;;;;;;;11.44;47.87;99533.46;1824024;77;21072;-70
2022/03/05 00:46:14;;;;;;;2.37;2.17;;;;;;;11.43;47.86;99535.27;1772260;81;20990;-69
2022/03/05 00:48:40;;;;;;;2.27;1.98;;;;;;;11.43;47.86;99526.47;1772349;81;21006;-68
2022/03/05 00:51:07;;;;;;;2.10;1.90;;;;;;;11.43;47.86;99529.13;1772490;80;21015;-68
2022/03/05 00:53:33;;;;;;;2.70;2.20;;;;;;;11.41;47.86;99530.16;1760837;81;21201;-68
2022/03/05 00:55:59;;;;;;;2.87;2.47;;;;;;;11.41;47.86;99530.63;1760878;81;21001;-68
2022/03/05 00:58:25;;;;;;;2.30;2.00;;;;;;;11.40;47.84;99527.16;1760829;81;21010;-68
2022/03/05 01:00:52;;;;;;;2.75;2.30;;;;;;;11.41;47.86;99526.64;1760104;81;21490;-68
2022/03/05 01:03:19;;;;;;;2.65;2.20;;;;;;;11.40;47.84;99526.34;1805620;79;21061;-68
2022/03/05 01:05:45;;;;;;;2.35;2.02;;;;;;;11.39;47.86;99529.48;1805670;79;21910;-68
2022/03/05 01:08:12;;;;;;;2.30;2.10;;;;;;;11.39;47.85;99533.98;1848689;77;21021;-68
2022/03/05 01:10:39;;;;;;;2.35;2.00;;;;;;;11.39;47.85;99533.98;1830798;77;21083;-68
2022/03/05 01:13:05;;;;;;;2.30;2.10;;;;;;;11.38;47.82;99525.69;1848591;77;21001;-69
2022/03/05 01:15:31;;;;;;;2.52;2.08;;;;;;;11.37;47.84;99528.02;1848357;77;20994;-68
2022/03/05 01:18:00;;;;;;;2.67;1.90;;;;;;;11.38;47.84;99531.02;1847082;77;21026;-68
2022/03/05 01:20:27;;;;;;;3.22;2.27;;;;;;;11.37;47.84;99530.67;1846739;77;21498;-68
2022/03/05 01:22:53;;;;;;;2.60;2.30;;;;;;;11.37;47.83;99530.67;1846696;77;21080;-68
2022/03/05 01:25:20;;;;;;;2.35;2.00;;;;;;;11.36;47.82;99531.69;1772366;81;21046;-67
2022/03/05 01:27:46;;;;;;;2.45;2.25;;;;;;;11.35;47.83;99528.18;1847086;77;20999;-68
2022/03/05 01:30:13;;;;;;;1.75;1.65;;;;;;;11.36;47.80;99531.69;1846740;77;21214;-68
2022/03/05 01:32:41;;;;;;;2.08;1.87;;;;;;;11.35;47.83;99530.02;1766095;81;21082;-69
2022/03/05 01:35:09;;;;;;;2.45;2.25;;;;;;;11.34;47.84;99535.86;1841407;77;21021;-69
2022/03/05 01:37:36;;;;;;;2.20;2.00;;;;;;;11.34;47.84;99533.19;1767517;81;21546;-68
2022/03/05 01:40:04;;;;;;;2.35;2.10;;;;;;;11.33;47.81;99534.19;1841535;78;21015;-68
2022/03/05 01:42:31;;;;;;;2.08;1.87;;;;;;;11.32;47.81;99532.55;1841176;78;21242;-68
2022/03/05 01:44:57;;;;;;;1.80;1.57;;;;;;;11.33;47.84;99532.03;1841157;78;21542;-68
2022/03/05 01:47:24;;;;;;;2.25;2.02;;;;;;;11.33;47.83;99539.50;1841095;78;21452;-68
2022/03/05 01:49:50;;;;;;;2.27;2.08;;;;;;;11.32;47.82;99530.37;1840947;78;21029;-68
2022/03/05 01:52:17;;;;;;;2.10;1.90;;;;;;;11.32;47.83;99537.87;1827679;77;21084;-68
2022/03/05 01:54:44;;;;;;;2.87;2.40;;;;;;;11.31;47.83;99535.37;1820411;78;21132;-68
2022/03/05 01:57:11;;;;;;;2.20;2.00;;;;;;;11.31;47.82;99528.22;1820260;78;21009;-67
2022/03/05 01:59:38;;;;;;;2.60;2.17;;;;;;;11.31;47.82;99539.37;1820267;78;21532;-68
2022/03/05 02:02:05;;;;;;;2.08;1.87;;;;;;;11.31;47.83;99544.69;1820424;78;21001;-68
2022/03/05 02:04:31;;;;;;;2.00;1.70;;;;;;;11.31;47.82;99540.70;1820419;78;21033;-69
2022/03/05 02:06:58;;;;;;;2.30;2.10;;;;;;;11.30;47.82;99537.70;1820470;78;21131;-68
2022/03/05 02:09:25;;;;;;;2.37;2.02;;;;;;;11.30;47.81;99541.69;1832405;77;21006;-68
2022/03/05 02:11:51;;;;;;;1.98;1.77;;;;;;;11.30;47.80;99536.37;1805749;79;21061;-68
2022/03/05 02:14:19;;;;;;;2.35;2.15;;;;;;;11.29;47.82;99540.87;1807433;79;21014;-67
2022/03/05 02:16:46;;;;;;;3.12;2.10;;;;;;;11.29;47.81;99540.87;1853849;77;21085;-68
2022/03/05 02:19:12;;;;;;;2.33;2.10;;;;;;;11.27;47.82;99538.89;1854098;77;21176;-67
2022/03/05 02:21:39;;;;;;;1.90;1.70;;;;;;;11.28;47.82;99539.70;1853785;77;21072;-68
2022/03/05 02:24:06;;;;;;;2.05;1.85;;;;;;;11.28;47.81;99547.20;1853971;77;21452;-68
2022/03/05 02:26:32;;;;;;;2.50;2.08;;;;;;;11.28;47.81;99549.02;1847537;77;21026;-68
2022/03/05 02:28:58;;;;;;;2.10;1.90;;;;;;;11.28;47.81;99547.69;1841408;78;21486;-68
2022/03/05 02:31:25;;;;;;;2.05;1.85;;;;;;;11.28;47.80;99541.04;1767242;81;21162;-68
2022/03/05 02:33:52;;;;;;;1.85;1.67;;;;;;;11.27;47.79;99547.38;1839457;78;21505;-68
2022/03/05 02:36:21;;;;;;;2.08;1.87;;;;;;;11.27;47.81;99550.03;1764253;81;21577;-68
2022/03/05 02:38:48;;;;;;;2.20;2.00;;;;;;;11.27;47.80;99550.86;1764056;81;21054;-68
2022/03/05 02:41:16;;;;;;;2.05;1.85;;;;;;;11.26;47.81;99549.70;1795590;80;21003;-68
2022/03/05 02:43:43;;;;;;;1.85;1.70;;;;;;;11.25;47.77;99550.21;1765806;81;21143;-68
2022/03/05 02:46:09;;;;;;;2.42;2.22;;;;;;;11.25;47.79;99546.22;1767061;81;21054;-68
2022/03/05 02:48:36;;;;;;;2.12;1.92;;;;;;;11.25;47.78;99553.38;1767282;81;21019;-70
2022/03/05 02:51:02;;;;;;;2.25;2.05;;;;;;;11.25;47.79;99554.71;1768319;80;21521;-68
2022/03/05 02:53:31;;;;;;;2.47;2.20;;;;;;;11.23;47.78;99556.72;1775938;80;21068;-68
2022/03/05 02:55:58;;;;;;;2.10;1.80;;;;;;;11.24;47.78;99557.03;1775883;80;21269;-68
2022/03/05 02:58:24;;;;;;;1.85;1.67;;;;;;;11.24;47.76;99561.02;1775920;80;21022;-69
2022/03/05 03:00:51;;;;;;;2.25;1.95;;;;;;;11.22;47.75;99554.54;1786259;79;21566;-69
2022/03/05 03:03:18;;;;;;;2.17;1.90;;;;;;;11.24;47.76;99557.03;1778454;80;21022;-68
2022/03/05 03:05:45;;;;;;;2.77;2.10;;;;;;;11.21;47.77;99551.57;1778054;80;21030;-69
2022/03/05 03:08:11;;;;;;;1.92;1.75;;;;;;;11.21;47.77;99556.89;1834276;78;21248;-67
2022/03/05 03:10:39;;;;;;;2.27;1.95;;;;;;;11.21;47.77;99552.90;1834145;78;21494;-69
2022/03/05 03:13:05;;;;;;;1.92;1.77;;;;;;;11.21;47.77;99558.22;1834599;78;21049;-68
2022/03/05 03:15:32;;;;;;;2.20;2.00;;;;;;;11.20;47.75;99564.05;1834317;78;20973;-68
2022/03/05 03:17:58;;;;;;;2.15;1.92;;;;;;;11.19;47.74;99566.36;1838038;78;21013;-69
2022/03/05 03:20:27;;;;;;;2.27;1.98;;;;;;;11.20;47.75;99567.19;1831617;77;21021;-68
2022/03/05 03:22:57;;;;;;;1.62;1.52;;;;;;;11.19;47.74;99573.02;1833281;77;21075;-68
2022/03/05 03:25:23;;;;;;;1.90;1.60;;;;;;;11.20;47.74;99576.49;1848099;77;21528;-68
2022/03/05 03:27:50;;;;;;;1.95;1.72;;;;;;;11.20;47.74;99576.49;1847866;77;21498;-68
2022/03/05 03:30:17;;;;;;;2.12;1.92;;;;;;;11.18;47.74;99569.20;1847819;77;21025;-69
2022/03/05 03:32:45;;;;;;;1.80;1.70;;;;;;;11.18;47.75;99576.69;1848302;77;21181;-68
2022/03/05 03:35:13;;;;;;;2.08;1.87;;;;;;;11.19;47.74;99578.84;1823740;77;20966;-67
2022/03/05 03:37:40;;;;;;;2.40;1.85;;;;;;;11.18;47.73;99577.17;1814889;78;20987;-68
2022/03/05 03:40:09;;;;;;;1.70;1.60;;;;;;;11.17;47.74;99579.01;1814662;79;20994;-68
2022/03/05 03:42:35;;;;;;;1.50;1.40;;;;;;;11.17;47.73;99590.97;1814956;79;21053;-68
2022/03/05 03:45:04;;;;;;;1.65;1.55;;;;;;;11.18;47.74;99585.15;1814558;79;20979;-68
2022/03/05 03:47:30;;;;;;;2.22;1.80;;;;;;;11.17;47.73;99590.97;1814891;78;21307;-68
2022/03/05 03:49:57;;;;;;;2.30;1.90;;;;;;;11.16;47.73;99591.14;1814882;79;21013;-69
2022/03/05 03:52:23;;;;;;;2.10;1.80;;;;;;;11.15;47.72;99590.33;1841671;77;20994;-68
2022/03/05 03:54:50;;;;;;;1.60;1.50;;;;;;;11.15;47.72;99589.50;1848172;77;20982;-68
2022/03/05 03:57:16;;;;;;;2.30;1.65;;;;;;;11.15;47.72;99591.66;1847860;77;21303;-69
2022/03/05 03:59:45;;;;;;;2.05;1.80;;;;;;;11.15;47.74;99589.50;1847694;77;21560;-67
2022/03/05 04:02:12;;;;;;;2.17;1.98;;;;;;;11.14;47.71;99588.66;1847857;77;21025;-69
2022/03/05 04:04:38;;;;;;;2.15;1.90;;;;;;;11.14;47.71;99601.12;1847869;77;21443;-68
2022/03/05 04:09:51;;;;;;;2.17;1.98;;;;;;;11.14;47.69;99590.49;1814486;79;21005;-68
2022/03/05 04:12:17;;;;;;;2.00;1.80;;;;;;;11.14;47.71;99597.14;1814600;79;20985;-68
2022/03/05 04:14:44;;;;;;;1.80;1.65;;;;;;;11.12;47.70;99589.33;1814791;79;21049;-69
2022/03/05 04:17:12;;;;;;;1.77;1.62;;;;;;;11.12;47.70;99605.28;1814613;78;21462;-69
2022/03/05 04:19:39;;;;;;;2.15;1.80;;;;;;;11.12;47.72;99608.45;1814822;79;21017;-68
2022/03/05 04:22:06;;;;;;;2.72;1.75;;;;;;;11.11;47.72;99606.30;1814537;78;21237;-69
2022/03/05 04:24:33;;;;;;;1.80;1.57;;;;;;;11.11;47.70;99608.14;1816386;78;21072;-68
2022/03/05 04:26:59;;;;;;;2.05;1.80;;;;;;;11.11;47.70;99608.14;1847576;77;21026;-69
2022/03/05 04:29:26;;;;;;;2.15;1.70;;;;;;;11.11;47.70;99614.28;1847969;76;20981;-68
2022/03/05 04:31:52;;;;;;;1.87;1.60;;;;;;;11.11;47.70;99622.25;1848136;77;21531;-69
2022/03/05 04:34:19;;;;;;;1.98;1.55;;;;;;;11.10;47.68;99609.95;1842943;77;21743;-67
2022/03/05 04:36:45;;;;;;;2.30;1.92;;;;;;;11.10;47.70;99617.92;1837115;78;21524;-68
2022/03/05 04:39:12;;;;;;;1.80;1.50;;;;;;;11.10;47.68;99625.91;1837272;78;21035;-68
2022/03/05 04:41:39;;;;;;;2.40;1.67;;;;;;;11.10;47.67;99625.91;1833605;78;21042;-67
2022/03/05 04:44:06;;;;;;;2.77;1.85;;;;;;;11.09;47.69;99621.61;1804278;79;21017;-68
2022/03/05 04:46:33;;;;;;;2.27;1.50;;;;;;;11.09;47.67;99626.92;1804232;79;21217;-69
2022/03/05 04:49:00;;;;;;;2.10;1.65;;;;;;;11.09;47.66;99625.59;1804250;79;21037;-68
2022/03/05 04:51:27;;;;;;;2.05;1.65;;;;;;;11.09;47.67;99630.91;1819336;78;21057;-69
2022/03/05 04:53:53;;;;;;;1.80;1.70;;;;;;;11.09;47.67;99637.55;1837383;78;20997;-68
2022/03/05 04:56:20;;;;;;;1.72;1.62;;;;;;;11.09;47.67;99639.39;1837654;78;20975;-69
2022/03/05 04:58:46;;;;;;;1.40;1.30;;;;;;;11.09;47.66;99639.39;1835767;78;21303;-68
2022/03/05 05:01:13;;;;;;;1.77;1.47;;;;;;;11.08;47.66;99642.53;1837298;78;21018;-68
2022/03/05 05:03:39;;;;;;;1.95;1.67;;;;;;;11.09;47.66;99647.37;1837436;78;21651;-69
2022/03/05 05:06:06;;;;;;;1.80;1.60;;;;;;;11.07;47.65;99648.87;1838049;78;20979;-69
2022/03/05 05:08:33;;;;;;;1.37;1.27;;;;;;;11.07;47.65;99656.84;1837161;78;21584;-68
2022/03/05 05:10:59;;;;;;;1.87;1.45;;;;;;;11.08;47.65;99661.14;1837246;78;21229;-69
2022/03/05 05:13:26;;;;;;;2.05;1.70;;;;;;;11.09;47.66;99665.47;1837249;78;20971;-68
2022/03/05 05:15:52;;;;;;;1.47;1.37;;;;;;;11.08;47.63;99662.98;1836377;78;21029;-69
2022/03/05 05:18:19;;;;;;;1.30;1.20;;;;;;;11.08;47.65;99668.30;1837450;78;21054;-69
2022/03/05 05:20:47;;;;;;;2.62;1.70;;;;;;;11.08;47.62;99670.95;1837280;78;21537;-68
2022/03/05 05:23:14;;;;;;;1.52;1.40;;;;;;;11.07;47.63;99679.91;1837243;78;21123;-68
2022/03/05 05:25:40;;;;;;;1.37;1.10;;;;;;;11.07;47.63;99678.59;1837309;78;21388;-68
2022/03/05 05:28:07;;;;;;;1.57;1.37;;;;;;;11.07;47.61;99678.59;1837563;78;21545;-69
2022/03/05 05:30:34;;;;;;;2.30;1.52;;;;;;;11.07;47.62;99683.91;1836472;78;21032;-67
2022/03/05 05:33:00;;;;;;;1.52;1.27;;;;;;;11.07;47.62;99683.42;1832753;77;20991;-69
2022/03/05 05:35:27;;;;;;;1.45;1.20;;;;;;;11.06;47.62;99686.25;1812519;79;21879;-68
2022/03/05 05:37:53;;;;;;;1.65;1.40;;;;;;;11.06;47.60;99698.21;1814962;79;21528;-68
2022/03/05 05:40:20;;;;;;;1.90;1.60;;;;;;;11.06;47.62;99691.06;1814639;79;21052;-68
2022/03/05 05:42:47;;;;;;;1.60;1.40;;;;;;;11.06;47.60;99692.39;1814511;79;21068;-69
2022/03/05 05:45:13;;;;;;;1.60;1.30;;;;;;;11.06;47.60;99692.89;1814700;79;20997;-69
2022/03/05 05:47:40;;;;;;;1.47;1.37;;;;;;;11.06;47.61;99695.55;1814521;79;21247;-68
2022/03/05 05:50:08;;;;;;;1.82;1.30;;;;;;;11.06;47.60;99695.55;1822332;77;21576;-68
2022/03/05 05:52:38;;;;;;;1.70;1.50;;;;;;;11.06;47.60;99698.21;1847132;77;21018;-68
2022/03/05 05:55:05;;;;;;;1.65;1.42;;;;;;;11.06;47.59;99698.21;1847866;77;20974;-68
2022/03/05 05:57:34;;;;;;;1.37;1.27;;;;;;;11.04;47.60;99701.03;1847934;77;21489;-68
2022/03/05 06:00:00;;;;;;;1.35;1.25;;;;;;;11.04;47.57;99697.05;1848164;77;21151;-69
2022/03/05 06:02:27;;;;;;;2.30;1.47;;;;;;;11.04;47.57;99701.03;1847912;77;21060;-68
2022/03/05 06:04:53;;;;;;;1.25;1.10;;;;;;;11.04;47.58;99704.20;1847803;77;21038;-68
2022/03/05 06:07:20;;;;;;;1.67;1.20;;;;;;;11.04;47.57;99709.02;1844517;77;20986;-68
2022/03/05 06:09:47;;;;;;;1.60;1.20;;;;;;;11.04;47.58;99709.52;1797616;79;21070;-69
2022/03/05 06:12:14;;;;;;;1.40;1.30;;;;;;;11.05;47.57;99721.31;1766868;81;21251;-68
2022/03/05 06:14:40;;;;;;;1.60;1.12;;;;;;;11.04;47.57;99726.30;1766790;81;20967;-69
2022/03/05 06:17:08;;;;;;;1.55;1.30;;;;;;;11.05;47.57;99731.09;1766962;81;21014;-69
2022/03/05 06:19:36;;;;;;;2.35;1.02;;;;;;;11.04;47.55;99726.30;1766841;81;21042;-69
2022/03/05 06:22:04;;;;;;;1.30;1.10;;;;;;;11.06;47.54;99730.11;1766945;81;21084;-68
2022/03/05 06:24:31;;;;;;;1.35;1.25;;;;;;;11.06;47.55;99732.77;1766037;80;22067;-69
2022/03/05 06:26:57;;;;;;;1.27;1.10;;;;;;;11.05;47.53;99733.28;1838017;78;21045;-68
2022/03/05 06:29:24;;;;;;;1.90;1.30;;;;;;;11.05;47.53;99745.25;1764403;81;21059;-68
2022/03/05 06:31:51;;;;;;;1.60;1.27;;;;;;;11.05;47.53;99740.41;1765159;81;20991;-68
2022/03/05 06:34:17;;;;;;;1.40;1.30;;;;;;;11.05;47.53;99742.59;1763457;81;21114;-68
2022/03/05 06:36:45;;;;;;;1.22;1.12;;;;;;;11.05;47.53;99743.06;1768810;80;21246;-68
2022/03/05 06:39:11;;;;;;;1.30;1.20;;;;;;;11.05;47.53;99744.39;1751155;81;21027;-68
2022/03/05 06:41:38;;;;;;;1.47;1.30;;;;;;;11.06;47.52;99748.22;1791390;79;21000;-69
2022/03/05 06:44:06;;;;;;;1.60;1.20;;;;;;;11.06;47.52;99750.05;1760658;81;21024;-68
2022/03/05 06:46:33;;;;;;;1.25;1.15;;;;;;;11.06;47.51;99758.84;1772219;81;21064;-68
2022/03/05 06:48:59;;;;;;;1.55;1.12;;;;;;;11.06;47.51;99753.53;1760726;81;21292;-69
2022/03/05 06:51:26;;;;;;;1.20;1.10;;;;;;;11.06;47.51;99758.84;1750445;80;20998;-68
2022/03/05 06:53:52;;;;;;;0.90;0.90;;;;;;;11.06;47.49;99760.69;1815049;79;21062;-69
2022/03/05 06:56:19;;;;;;;1.20;1.10;;;;;;;11.06;47.48;99762.84;1815221;79;21011;-68
2022/03/05 06:58:45;;;;;;;1.10;1.00;;;;;;;11.07;47.49;99766.31;1833789;77;21069;-68
2022/03/05 07:01:12;;;;;;;1.62;1.10;;;;;;;11.06;47.47;99762.84;1805820;79;21207;-69
2022/03/05 07:03:38;;;;;;;1.20;1.05;;;;;;;11.07;47.48;99768.98;1848595;77;21034;-69
2022/03/05 07:06:05;;;;;;;1.30;1.20;;;;;;;11.06;47.47;99766.83;1805813;79;20994;-67
2022/03/05 07:08:31;;;;;;;1.40;1.00;;;;;;;11.07;47.46;99767.17;1848520;77;21034;-68
2022/03/05 07:10:58;;;;;;;1.50;1.20;;;;;;;11.08;47.47;99774.13;1805831;79;21565;-68
2022/03/05 07:13:24;;;;;;;1.20;1.07;;;;;;;11.08;47.46;99770.14;1806015;79;21497;-68
2022/03/05 07:15:50;;;;;;;0.90;0.80;;;;;;;11.08;47.46;99767.98;1804427;79;21082;-68
2022/03/05 07:18:17;;;;;;;1.10;1.00;;;;;;;11.08;47.46;99770.65;1848722;77;20986;-68
2022/03/05 07:20:43;;;;;;;1.10;1.00;;;;;;;11.09;47.46;99776.31;1805729;79;21537;-69
2022/03/05 07:23:10;;;;;;;1.20;1.10;;;;;;;11.08;47.45;99774.13;1805810;79;21042;-68
2022/03/05 07:25:39;;;;;;;1.35;1.20;;;;;;;11.09;47.44;99779.79;1848441;77;21165;-69
2022/03/05 07:28:09;;;;;;;1.50;1.40;;;;;;;11.09;47.43;99781.12;1805788;79;21530;-69
2022/03/05 07:30:37;;;;;;;0.90;0.90;;;;;;;11.08;47.43;99782.10;1848304;77;21092;-68
2022/03/05 07:33:05;;;;;;;1.35;1.25;;;;;;;11.09;47.42;99787.77;1847850;77;21550;-68
2022/03/05 07:35:32;;;;;;;1.07;0.95;;;;;;;11.09;47.40;99787.77;1850795;77;21075;-68
2022/03/05 07:37:59;;;;;;;0.98;0.98;;;;;;;11.10;47.41;99789.41;1856689;77;21238;-68
2022/03/05 07:40:25;;;;;;;1.65;1.20;;;;;;;11.09;47.43;99786.44;1856789;77;20993;-68
2022/03/05 07:42:52;;;;;;;1.05;1.05;;;;;;;11.10;47.41;99788.08;1838007;77;21019;-69
2022/03/05 07:45:19;;;;;;;1.25;1.15;;;;;;;11.10;47.39;99792.06;1856699;77;21001;-68
2022/03/05 07:47:46;;;;;;;1.40;1.20;;;;;;;11.10;47.41;99784.09;1856763;77;20981;-68
2022/03/05 07:50:12;;;;;;;1.15;1.05;;;;;;;11.10;47.38;99780.10;1848127;77;21226;-68
2022/03/05 07:52:39;;;;;;;1.67;1.40;;;;;;;11.11;47.38;99783.61;1845582;77;20997;-69
2022/03/05 07:55:07;;;;;;;1.67;1.22;;;;;;;11.11;47.39;99787.09;1845807;77;21577;-68
2022/03/05 07:57:34;;;;;;;1.22;1.12;;;;;;;11.11;47.38;99791.08;1802775;79;20990;-69
2022/03/05 08:00:00;;;;;;;1.62;1.20;;;;;;;11.12;47.38;99785.25;1802789;79;20982;-68
2022/03/05 08:02:27;;;;;;;1.30;1.17;;;;;;;11.11;47.37;99788.42;1846163;77;21103;-68
2022/03/05 08:04:53;;;;;;;1.20;1.10;;;;;;;11.12;47.37;99790.06;1802777;79;21010;-69
2022/03/05 08:07:21;;;;;;;0.90;0.90;;;;;;;11.12;47.37;99790.57;1845929;77;21009;-68
2022/03/05 08:09:47;;;;;;;1.15;1.05;;;;;;;11.13;47.35;99794.40;1845542;77;21504;-68
2022/03/05 08:12:14;;;;;;;1.52;1.22;;;;;;;11.14;47.35;99791.23;1803113;79;21007;-68
2022/03/05 08:14:44;;;;;;;1.10;1.00;;;;;;;11.15;47.36;99794.23;1802831;79;21100;-69
2022/03/05 08:17:11;;;;;;;1.20;1.10;;;;;;;11.14;47.35;99791.23;1803063;79;21042;-68
2022/03/05 08:19:39;;;;;;;1.20;1.02;;;;;;;11.14;47.35;99797.37;1845618;77;21002;-68
2022/03/05 08:22:06;;;;;;;0.90;0.90;;;;;;;11.15;47.34;99796.89;1846049;77;21537;-69
2022/03/05 08:24:33;;;;;;;1.95;1.30;;;;;;;11.16;47.34;99800.72;1855163;77;21005;-68
2022/03/05 08:26:59;;;;;;;1.15;1.00;;;;;;;11.16;47.33;99799.39;1856825;77;21342;-68
2022/03/05 08:29:26;;;;;;;1.07;0.98;;;;;;;11.17;47.34;99803.69;1856599;76;20978;-69
2022/03/05 08:31:52;;;;;;;1.00;0.90;;;;;;;11.18;47.32;99801.84;1856915;77;21025;-69
2022/03/05 08:34:19;;;;;;;1.30;1.10;;;;;;;11.18;47.32;99804.51;1856741;77;21068;-69
2022/03/05 08:36:47;;;;;;;1.10;1.00;;;;;;;11.20;47.31;99807.83;1856983;77;21005;-68
2022/03/05 08:39:13;;;;;;;1.17;1.07;;;;;;;11.20;47.32;99809.16;1856999;77;21227;-69
2022/03/05 08:41:40;;;;;;;1.25;1.15;;;;;;;11.21;47.31;99812.98;1850220;77;21054;-67
2022/03/05 08:44:06;;;;;;;1.45;1.35;;;;;;;11.21;47.33;99810.32;1778073;80;21041;-68
2022/03/05 08:48:29;;;;;;;1.30;1.20;;;;;;;11.29;47.33;99809.98;1857396;75;28062;-68
2022/03/05 08:50:55;;;;;;;1.20;1.10;;;;;;;11.29;47.25;99818.78;1834483;76;21020;-68
2022/03/05 08:53:22;;;;;;;1.17;1.07;;;;;;;11.33;47.23;99816.61;1844245;76;21246;-67
2022/03/05 08:55:48;;;;;;;1.42;1.10;;;;;;;11.33;47.26;99817.43;1845617;76;21477;-68
2022/03/05 08:58:15;;;;;;;1.00;1.00;;;;;;;11.32;47.22;99821.11;1836255;76;21053;-67
2022/03/05 09:00:41;;;;;;;1.30;1.20;;;;;;;11.35;47.24;99821.25;1841658;77;21079;-68
2022/03/05 09:03:07;;;;;;;0.93;0.93;;;;;;;11.37;47.24;99825.91;1841079;76;21107;-68
2022/03/05 09:05:34;;;;;;;0.98;0.90;;;;;;;11.37;47.23;99833.87;1845088;77;22023;-68
2022/03/05 09:08:00;;;;;;;1.10;0.90;;;;;;;11.38;47.20;99837.70;1850420;77;21029;-68
2022/03/05 09:10:27;;;;;;;0.90;0.90;;;;;;;11.39;47.20;99835.87;1837221;76;21257;-67
2022/03/05 09:12:53;;;;;;;0.95;0.90;;;;;;;11.40;47.18;99834.88;1835082;76;21536;-68
2022/03/05 09:15:20;;;;;;;1.10;1.00;;;;;;;11.40;47.17;99837.54;1835735;76;21036;-67
2022/03/05 09:17:48;;;;;;;1.30;1.20;;;;;;;11.42;47.16;99835.53;1836162;76;20965;-69
2022/03/05 09:20:14;;;;;;;1.10;1.00;;;;;;;11.44;47.15;99839.36;1835340;76;20981;-67
2022/03/05 09:22:41;;;;;;;1.10;1.00;;;;;;;11.43;47.14;99843.83;1842409;77;20988;-68
2022/03/05 09:25:09;;;;;;;1.22;1.10;;;;;;;11.44;47.14;99845.50;1842374;76;21008;-67
2022/03/05 09:27:35;;;;;;;1.20;1.10;;;;;;;11.45;47.12;99847.66;1847515;76;21072;-68
2022/03/05 09:30:03;;;;;;;1.22;1.12;;;;;;;11.46;47.13;99853.32;1845278;76;21237;-68
2022/03/05 09:32:30;;;;;;;1.45;1.10;;;;;;;11.46;47.12;99854.14;1837383;77;21036;-69
2022/03/05 09:34:59;;;;;;;1.20;1.10;;;;;;;11.46;47.11;99852.81;1838671;76;20997;-68
2022/03/05 09:37:28;;;;;;;1.27;1.17;;;;;;;11.47;47.08;99849.64;1835829;76;20976;-67
2022/03/05 09:39:55;;;;;;;0.90;0.90;;;;;;;11.47;47.07;99857.63;1834405;76;20981;-68
2022/03/05 09:42:21;;;;;;;1.45;1.10;;;;;;;11.49;47.08;99863.59;1844532;76;21203;-68
2022/03/05 09:44:47;;;;;;;1.05;0.98;;;;;;;11.48;47.06;99857.46;1847309;77;20975;-69
2022/03/05 09:47:15;;;;;;;0.98;0.98;;;;;;;11.48;47.05;99856.13;1829885;77;20985;-68
2022/03/05 09:49:42;;;;;;;1.22;1.10;;;;;;;11.49;47.03;99864.45;1806688;77;20973;-68
2022/03/05 09:52:09;;;;;;;1.12;1.05;;;;;;;11.50;47.02;99860.78;1769222;80;21084;-69
2022/03/05 09:54:36;;;;;;;1.02;1.02;;;;;;;11.51;47.01;99857.13;1783513;79;21194;-68
2022/03/05 09:57:11;;;;;;;1.15;0.98;;;;;;;11.50;47.00;99859.45;1761595;79;21064;-68
2022/03/05 09:59:38;;;;;;;1.55;1.00;;;;;;;11.51;46.99;99858.46;1783420;79;21530;-68
2022/03/05 10:02:05;;;;;;;1.00;1.00;;;;;;;11.52;47.00;99861.43;1774061;79;21033;-68
2022/03/05 10:04:32;;;;;;;1.25;0.90;;;;;;;11.52;46.99;99853.96;1745950;81;21096;-69
2022/03/05 10:07:15;;;;;;;1.45;0.93;;;;;;;11.52;46.97;99858.77;1764477;80;21241;-68
2022/03/05 10:09:44;;;;;;;1.00;0.90;;;;;;;11.52;46.95;99861.94;1771483;79;28736;-68
2022/03/05 10:12:32;;;;;;;1.25;1.00;;;;;;;11.52;46.95;99865.42;1773969;79;21520;-69
2022/03/05 10:15:13;;;;;;;0.62;0.62;;;;;;;11.52;46.95;99862.77;1774356;79;21051;-68
2022/03/05 10:17:51;;;;;;;1.25;1.10;;;;;;;11.53;46.95;99863.58;1783958;79;21021;-68
2022/03/05 10:20:19;;;;;;;1.00;0.90;;;;;;;11.53;46.95;99868.91;1818406;78;21737;-68
2022/03/05 10:23:07;;;;;;;1.10;0.90;;;;;;;11.52;46.95;99872.08;1807654;78;20950;-69
2022/03/05 10:25:48;;;;;;;0.80;0.80;;;;;;;11.52;46.95;99866.75;1818889;78;21022;-68
2022/03/05 10:28:24;;;;;;;0.80;0.80;;;;;;;11.51;46.95;99865.11;1803443;78;21075;-68
2022/03/05 10:30:58;;;;;;;1.00;0.90;;;;;;;11.52;46.95;99873.41;1803599;78;21163;-68
2022/03/05 10:33:45;;;;;;;1.30;1.20;;;;;;;11.52;46.95;99868.08;1808898;78;21076;-67
2022/03/05 10:36:24;;;;;;;1.55;0.90;;;;;;;11.52;46.94;99876.06;1779720;78;21001;-68
2022/03/05 10:38:57;;;;;;;1.17;1.00;;;;;;;11.52;46.93;99863.27;1794183;79;21051;-68
2022/03/05 10:41:36;;;;;;;0.90;0.90;;;;;;;11.52;46.92;99859.28;1782331;79;21103;-68
2022/03/05 10:44:15;;;;;;;1.17;0.90;;;;;;;11.52;46.93;99860.61;1789196;79;21095;-68
2022/03/05 10:46:59;;;;;;;1.00;0.90;;;;;;;11.52;46.94;99863.27;1786502;79;21456;-68
2022/03/05 10:49:32;;;;;;;0.90;0.90;;;;;;;11.51;46.90;99856.28;1785032;79;21014;-67
2022/03/05 10:52:04;;;;;;;1.07;0.98;;;;;;;11.50;46.92;99855.45;1773454;79;21047;-69
2022/03/05 10:54:40;;;;;;;1.50;0.85;;;;;;;11.51;46.92;99857.13;1786500;79;21068;-68
2022/03/05 10:57:25;;;;;;;1.32;1.20;;;;;;;11.51;46.92;99854.95;1761907;79;21009;-68
2022/03/05 10:59:54;;;;;;;0.90;0.90;;;;;;;11.52;46.92;99855.29;1778094;79;21152;-68
2022/03/05 11:02:22;;;;;;;0.98;0.85;;;;;;;11.51;46.89;99855.80;1752041;80;21025;-68
2022/03/05 11:04:50;;;;;;;0.95;0.85;;;;;;;11.52;46.92;99864.09;1747235;81;21056;-68
2022/03/05 11:07:19;;;;;;;2.15;1.32;;;;;;;11.52;46.88;99863.27;1761552;80;21087;-68
2022/03/05 11:09:47;;;;;;;1.57;1.40;;;;;;;11.51;46.89;99861.13;1759759;80;21521;-68
2022/03/05 11:12:19;;;;;;;1.40;1.12;;;;;;;11.53;46.86;99866.25;1769518;80;21552;-68
2022/03/05 11:14:50;;;;;;;1.47;1.05;;;;;;;11.54;46.87;99866.08;1779000;79;21658;-68
2022/03/05 11:17:17;;;;;;;1.90;1.35;;;;;;;11.54;46.87;99866.08;1781437;79;21032;-67
2022/03/05 11:19:45;;;;;;;1.10;1.00;;;;;;;11.54;46.86;99866.08;1780333;79;21044;-68
2022/03/05 11:22:16;;;;;;;1.85;1.25;;;;;;;11.55;46.84;99865.57;1790188;79;21026;-68
2022/03/05 11:24:45;;;;;;;2.17;1.30;;;;;;;11.55;46.84;99862.44;1780293;79;21103;-69
2022/03/05 11:27:13;;;;;;;1.65;1.40;;;;;;;11.56;46.83;99865.41;1786951;79;21069;-68
2022/03/05 11:29:59;;;;;;;1.50;1.00;;;;;;;11.56;46.82;99864.08;1781395;79;21088;-69
2022/03/05 11:32:30;;;;;;;1.47;1.32;;;;;;;11.56;46.79;99858.75;1771490;80;21180;-69
2022/03/05 11:34:58;;;;;;;1.57;1.30;;;;;;;11.56;46.79;99857.42;1775454;79;21036;-67
2022/03/05 11:37:35;;;;;;;1.75;1.50;;;;;;;11.56;46.79;99858.75;1780433;79;21094;-68
2022/03/05 11:40:05;;;;;;;2.10;1.40;;;;;;;11.56;46.78;99861.41;1786022;79;21048;-69
2022/03/05 11:42:36;;;;;;;1.95;1.40;;;;;;;11.56;46.77;99853.94;1776393;79;21603;-69